sensor_id;sensor_type;location;lat;lon;timestamp;P1;durP1;ratioP1;P2;durP2;ratioP2
2934;SDS011;2462;51.456;7.248;2023-07-13T00:01:11;1.70;;;1.00;;
2934;SDS011;2462;51.456;7.248;2023-07-13T00:03:37;2.20;;;1.20;;
2934;SDS011;2462;51.456;7.248;2023-07-13T00:06:05;2.70;;;1.37;;
2934;SDS011;2462;51.456;7.248;2023-07-13T00:08:32;2.40;;;1.40;;
2934;SDS011;2462;51.456;7.248;2023-07-13T00:10:58;2.63;;;1.07;;
2934;SDS011;2462;51.456;7.248;2023-07-13T00:13:24;1.77;;;1.20;;
2934;SDS011;2462;51.456;7.248;2023-07-13T00:15:50;2.17;;;1.20;;
2934;SDS011;2462;51.456;7.248;2023-07-13T00:18:16;1.63;;;1.10;;
2934;SDS011;2462;51.456;7.248;2023-07-13T00:20:42;1.73;;;1.00;;
2934;SDS011;2462;51.456;7.248;2023-07-13T00:23:08;2.47;;;1.60;;
2934;SDS011;2462;51.456;7.248;2023-07-13T00:25:34;3.00;;;1.40;;
2934;SDS011;2462;51.456;7.248;2023-07-13T00:28:00;3.10;;;1.30;;
2934;SDS011;2462;51.456;7.248;2023-07-13T00:30:26;1.97;;;1.00;;
2934;SDS011;2462;51.456;7.248;2023-07-13T00:32:52;2.20;;;1.20;;
2934;SDS011;2462;51.456;7.248;2023-07-13T00:35:18;1.63;;;1.47;;
2934;SDS011;2462;51.456;7.248;2023-07-13T00:37:44;2.77;;;1.40;;
2934;SDS011;2462;51.456;7.248;2023-07-13T00:40:13;2.50;;;1.40;;
2934;SDS011;2462;51.456;7.248;2023-07-13T00:42:40;3.53;;;1.23;;
2934;SDS011;2462;51.456;7.248;2023-07-13T00:46:02;2.70;;;1.53;;
2934;SDS011;2462;51.456;7.248;2023-07-13T00:47:52;2.00;;;1.10;;
2934;SDS011;2462;51.456;7.248;2023-07-13T00:50:18;2.23;;;1.50;;
2934;SDS011;2462;51.456;7.248;2023-07-13T00:52:47;4.20;;;1.30;;
2934;SDS011;2462;51.456;7.248;2023-07-13T00:55:13;2.67;;;1.50;;
2934;SDS011;2462;51.456;7.248;2023-07-13T00:57:40;1.80;;;1.20;;
2934;SDS011;2462;51.456;7.248;2023-07-13T01:00:07;3.27;;;1.30;;
2934;SDS011;2462;51.456;7.248;2023-07-13T01:02:33;4.07;;;1.10;;
2934;SDS011;2462;51.456;7.248;2023-07-13T01:04:59;5.67;;;1.23;;
2934;SDS011;2462;51.456;7.248;2023-07-13T01:07:26;1.47;;;1.37;;
2934;SDS011;2462;51.456;7.248;2023-07-13T01:09:52;3.93;;;1.57;;
2934;SDS011;2462;51.456;7.248;2023-07-13T01:12:18;1.50;;;0.77;;
2934;SDS011;2462;51.456;7.248;2023-07-13T01:14:44;3.53;;;1.30;;
2934;SDS011;2462;51.456;7.248;2023-07-13T01:17:10;2.87;;;1.00;;
2934;SDS011;2462;51.456;7.248;2023-07-13T01:19:40;3.67;;;1.20;;
2934;SDS011;2462;51.456;7.248;2023-07-13T01:22:09;1.60;;;1.00;;
2934;SDS011;2462;51.456;7.248;2023-07-13T01:24:36;2.13;;;1.30;;
2934;SDS011;2462;51.456;7.248;2023-07-13T01:27:03;6.43;;;1.03;;
2934;SDS011;2462;51.456;7.248;2023-07-13T01:29:31;5.73;;;1.50;;
2934;SDS011;2462;51.456;7.248;2023-07-13T01:31:57;1.87;;;0.87;;
2934;SDS011;2462;51.456;7.248;2023-07-13T01:34:23;1.50;;;0.90;;
2934;SDS011;2462;51.456;7.248;2023-07-13T01:36:49;2.40;;;1.50;;
2934;SDS011;2462;51.456;7.248;2023-07-13T01:39:16;2.00;;;1.10;;
2934;SDS011;2462;51.456;7.248;2023-07-13T01:41:42;2.70;;;1.50;;
2934;SDS011;2462;51.456;7.248;2023-07-13T01:44:07;2.07;;;1.23;;
2934;SDS011;2462;51.456;7.248;2023-07-13T01:46:33;2.40;;;1.30;;
2934;SDS011;2462;51.456;7.248;2023-07-13T01:48:59;2.10;;;1.30;;
2934;SDS011;2462;51.456;7.248;2023-07-13T01:51:25;3.40;;;1.00;;
2934;SDS011;2462;51.456;7.248;2023-07-13T01:53:51;2.70;;;1.47;;
2934;SDS011;2462;51.456;7.248;2023-07-13T01:56:17;2.43;;;1.20;;
2934;SDS011;2462;51.456;7.248;2023-07-13T01:58:44;2.00;;;1.27;;
2934;SDS011;2462;51.456;7.248;2023-07-13T02:01:10;2.20;;;1.40;;
2934;SDS011;2462;51.456;7.248;2023-07-13T02:03:36;3.20;;;1.37;;
2934;SDS011;2462;51.456;7.248;2023-07-13T02:06:02;2.07;;;1.40;;
2934;SDS011;2462;51.456;7.248;2023-07-13T02:08:28;1.83;;;1.00;;
2934;SDS011;2462;51.456;7.248;2023-07-13T02:10:54;2.23;;;1.20;;
2934;SDS011;2462;51.456;7.248;2023-07-13T02:13:20;4.73;;;1.27;;
2934;SDS011;2462;51.456;7.248;2023-07-13T02:15:46;4.00;;;1.27;;
2934;SDS011;2462;51.456;7.248;2023-07-13T02:18:12;4.33;;;1.60;;
2934;SDS011;2462;51.456;7.248;2023-07-13T02:20:41;3.10;;;1.60;;
2934;SDS011;2462;51.456;7.248;2023-07-13T02:23:07;2.83;;;1.17;;
2934;SDS011;2462;51.456;7.248;2023-07-13T02:25:33;2.10;;;1.00;;
2934;SDS011;2462;51.456;7.248;2023-07-13T02:27:59;2.00;;;1.40;;
2934;SDS011;2462;51.456;7.248;2023-07-13T02:30:26;3.60;;;1.40;;
2934;SDS011;2462;51.456;7.248;2023-07-13T02:32:54;1.77;;;0.90;;
2934;SDS011;2462;51.456;7.248;2023-07-13T02:35:20;3.07;;;1.67;;
2934;SDS011;2462;51.456;7.248;2023-07-13T02:37:46;1.73;;;0.90;;
2934;SDS011;2462;51.456;7.248;2023-07-13T02:40:12;2.50;;;1.07;;
2934;SDS011;2462;51.456;7.248;2023-07-13T02:42:38;3.00;;;1.23;;
2934;SDS011;2462;51.456;7.248;2023-07-13T02:45:05;3.00;;;1.30;;
2934;SDS011;2462;51.456;7.248;2023-07-13T02:47:31;2.93;;;1.30;;
2934;SDS011;2462;51.456;7.248;2023-07-13T02:49:57;2.03;;;0.97;;
2934;SDS011;2462;51.456;7.248;2023-07-13T02:52:24;2.03;;;1.10;;
2934;SDS011;2462;51.456;7.248;2023-07-13T02:54:50;3.23;;;1.27;;
2934;SDS011;2462;51.456;7.248;2023-07-13T02:57:16;2.20;;;1.13;;
2934;SDS011;2462;51.456;7.248;2023-07-13T02:59:42;5.00;;;1.30;;
2934;SDS011;2462;51.456;7.248;2023-07-13T03:02:08;5.10;;;1.20;;
2934;SDS011;2462;51.456;7.248;2023-07-13T03:04:35;2.47;;;1.13;;
2934;SDS011;2462;51.456;7.248;2023-07-13T03:07:01;2.60;;;1.10;;
2934;SDS011;2462;51.456;7.248;2023-07-13T03:09:27;1.90;;;1.10;;
2934;SDS011;2462;51.456;7.248;2023-07-13T03:11:53;2.23;;;1.30;;
2934;SDS011;2462;51.456;7.248;2023-07-13T03:14:20;2.60;;;1.10;;
2934;SDS011;2462;51.456;7.248;2023-07-13T03:16:46;1.53;;;1.00;;
2934;SDS011;2462;51.456;7.248;2023-07-13T03:19:12;3.10;;;1.27;;
2934;SDS011;2462;51.456;7.248;2023-07-13T03:21:38;1.57;;;1.00;;
2934;SDS011;2462;51.456;7.248;2023-07-13T03:24:04;5.20;;;1.20;;
2934;SDS011;2462;51.456;7.248;2023-07-13T03:26:30;2.40;;;1.13;;
2934;SDS011;2462;51.456;7.248;2023-07-13T03:28:56;2.03;;;1.20;;
2934;SDS011;2462;51.456;7.248;2023-07-13T03:31:24;3.87;;;1.70;;
2934;SDS011;2462;51.456;7.248;2023-07-13T03:33:50;3.60;;;1.20;;
2934;SDS011;2462;51.456;7.248;2023-07-13T03:36:17;1.87;;;1.23;;
2934;SDS011;2462;51.456;7.248;2023-07-13T03:38:44;1.80;;;1.07;;
2934;SDS011;2462;51.456;7.248;2023-07-13T03:41:11;2.10;;;1.07;;
2934;SDS011;2462;51.456;7.248;2023-07-13T03:43:37;3.20;;;1.40;;
2934;SDS011;2462;51.456;7.248;2023-07-13T03:46:03;1.93;;;1.20;;
2934;SDS011;2462;51.456;7.248;2023-07-13T03:48:29;3.83;;;1.10;;
2934;SDS011;2462;51.456;7.248;2023-07-13T03:50:55;1.83;;;1.20;;
2934;SDS011;2462;51.456;7.248;2023-07-13T03:53:21;2.33;;;1.23;;
2934;SDS011;2462;51.456;7.248;2023-07-13T03:55:47;3.50;;;1.10;;
2934;SDS011;2462;51.456;7.248;2023-07-13T03:58:26;3.00;;;1.30;;
2934;SDS011;2462;51.456;7.248;2023-07-13T04:00:53;3.07;;;1.33;;
2934;SDS011;2462;51.456;7.248;2023-07-13T04:03:19;2.37;;;1.10;;
2934;SDS011;2462;51.456;7.248;2023-07-13T04:05:45;2.73;;;1.10;;
2934;SDS011;2462;51.456;7.248;2023-07-13T04:08:11;4.87;;;1.50;;
2934;SDS011;2462;51.456;7.248;2023-07-13T04:10:37;2.07;;;1.20;;
2934;SDS011;2462;51.456;7.248;2023-07-13T04:13:03;2.93;;;1.03;;
2934;SDS011;2462;51.456;7.248;2023-07-13T04:15:30;2.60;;;1.40;;
2934;SDS011;2462;51.456;7.248;2023-07-13T04:17:56;1.83;;;1.13;;
2934;SDS011;2462;51.456;7.248;2023-07-13T04:20:22;4.50;;;1.43;;
2934;SDS011;2462;51.456;7.248;2023-07-13T04:22:49;3.40;;;1.33;;
2934;SDS011;2462;51.456;7.248;2023-07-13T04:25:15;4.17;;;1.20;;
2934;SDS011;2462;51.456;7.248;2023-07-13T04:27:41;3.60;;;1.27;;
2934;SDS011;2462;51.456;7.248;2023-07-13T04:30:07;1.83;;;1.30;;
2934;SDS011;2462;51.456;7.248;2023-07-13T04:32:33;1.80;;;1.03;;
2934;SDS011;2462;51.456;7.248;2023-07-13T04:34:59;2.77;;;1.47;;
2934;SDS011;2462;51.456;7.248;2023-07-13T04:37:25;2.47;;;1.07;;
2934;SDS011;2462;51.456;7.248;2023-07-13T04:39:51;3.67;;;1.53;;
2934;SDS011;2462;51.456;7.248;2023-07-13T04:42:17;2.00;;;1.23;;
2934;SDS011;2462;51.456;7.248;2023-07-13T04:44:52;3.97;;;1.80;;
2934;SDS011;2462;51.456;7.248;2023-07-13T04:47:18;2.80;;;1.00;;
2934;SDS011;2462;51.456;7.248;2023-07-13T04:49:44;2.20;;;1.30;;
2934;SDS011;2462;51.456;7.248;2023-07-13T04:52:11;4.23;;;1.73;;
2934;SDS011;2462;51.456;7.248;2023-07-13T04:54:37;3.23;;;1.20;;
2934;SDS011;2462;51.456;7.248;2023-07-13T04:57:04;3.60;;;1.60;;
2934;SDS011;2462;51.456;7.248;2023-07-13T04:59:31;4.43;;;1.40;;
2934;SDS011;2462;51.456;7.248;2023-07-13T05:01:57;5.10;;;1.50;;
2934;SDS011;2462;51.456;7.248;2023-07-13T05:04:23;5.53;;;1.63;;
2934;SDS011;2462;51.456;7.248;2023-07-13T05:06:49;4.80;;;1.50;;
2934;SDS011;2462;51.456;7.248;2023-07-13T05:09:15;6.37;;;1.80;;
2934;SDS011;2462;51.456;7.248;2023-07-13T05:11:41;4.50;;;1.73;;
2934;SDS011;2462;51.456;7.248;2023-07-13T05:14:07;7.10;;;1.90;;
2934;SDS011;2462;51.456;7.248;2023-07-13T05:16:34;4.10;;;1.63;;
2934;SDS011;2462;51.456;7.248;2023-07-13T05:19:00;11.73;;;1.90;;
2934;SDS011;2462;51.456;7.248;2023-07-13T05:21:26;4.77;;;2.00;;
2934;SDS011;2462;51.456;7.248;2023-07-13T05:23:52;3.97;;;1.90;;
2934;SDS011;2462;51.456;7.248;2023-07-13T05:26:18;3.17;;;1.30;;
2934;SDS011;2462;51.456;7.248;2023-07-13T05:28:45;3.43;;;1.30;;
2934;SDS011;2462;51.456;7.248;2023-07-13T05:31:11;8.47;;;1.83;;
2934;SDS011;2462;51.456;7.248;2023-07-13T05:33:37;2.90;;;1.20;;
2934;SDS011;2462;51.456;7.248;2023-07-13T05:36:03;5.00;;;1.77;;
2934;SDS011;2462;51.456;7.248;2023-07-13T05:38:29;2.80;;;1.90;;
2934;SDS011;2462;51.456;7.248;2023-07-13T05:40:55;5.57;;;1.93;;
2934;SDS011;2462;51.456;7.248;2023-07-13T05:43:22;3.90;;;1.77;;
2934;SDS011;2462;51.456;7.248;2023-07-13T05:45:48;3.77;;;1.60;;
2934;SDS011;2462;51.456;7.248;2023-07-13T05:48:14;5.17;;;2.27;;
2934;SDS011;2462;51.456;7.248;2023-07-13T05:50:40;7.23;;;2.50;;
2934;SDS011;2462;51.456;7.248;2023-07-13T05:53:06;3.60;;;1.63;;
2934;SDS011;2462;51.456;7.248;2023-07-13T05:55:32;6.13;;;2.40;;
2934;SDS011;2462;51.456;7.248;2023-07-13T05:57:59;4.67;;;2.33;;
2934;SDS011;2462;51.456;7.248;2023-07-13T06:00:25;12.30;;;2.50;;
2934;SDS011;2462;51.456;7.248;2023-07-13T06:02:51;9.77;;;2.43;;
2934;SDS011;2462;51.456;7.248;2023-07-13T06:05:17;6.60;;;2.03;;
2934;SDS011;2462;51.456;7.248;2023-07-13T06:07:43;6.03;;;2.30;;
2934;SDS011;2462;51.456;7.248;2023-07-13T06:10:09;8.70;;;2.53;;
2934;SDS011;2462;51.456;7.248;2023-07-13T06:12:35;4.67;;;1.77;;
2934;SDS011;2462;51.456;7.248;2023-07-13T06:15:01;4.37;;;2.00;;
2934;SDS011;2462;51.456;7.248;2023-07-13T06:17:27;3.20;;;1.83;;
2934;SDS011;2462;51.456;7.248;2023-07-13T06:19:53;5.97;;;2.33;;
2934;SDS011;2462;51.456;7.248;2023-07-13T06:22:19;5.10;;;1.60;;
2934;SDS011;2462;51.456;7.248;2023-07-13T06:24:45;7.17;;;2.03;;
2934;SDS011;2462;51.456;7.248;2023-07-13T06:27:11;7.80;;;2.50;;
2934;SDS011;2462;51.456;7.248;2023-07-13T06:29:37;4.80;;;2.37;;
2934;SDS011;2462;51.456;7.248;2023-07-13T06:32:04;5.07;;;2.37;;
2934;SDS011;2462;51.456;7.248;2023-07-13T06:34:30;8.97;;;2.10;;
2934;SDS011;2462;51.456;7.248;2023-07-13T06:36:56;4.33;;;2.10;;
2934;SDS011;2462;51.456;7.248;2023-07-13T06:39:22;4.37;;;2.07;;
2934;SDS011;2462;51.456;7.248;2023-07-13T06:41:49;5.47;;;2.90;;
2934;SDS011;2462;51.456;7.248;2023-07-13T06:44:14;4.90;;;2.33;;
2934;SDS011;2462;51.456;7.248;2023-07-13T06:46:40;6.27;;;1.87;;
2934;SDS011;2462;51.456;7.248;2023-07-13T06:49:08;7.97;;;2.70;;
2934;SDS011;2462;51.456;7.248;2023-07-13T06:51:34;5.20;;;2.47;;
2934;SDS011;2462;51.456;7.248;2023-07-13T06:54:00;5.53;;;2.57;;
2934;SDS011;2462;51.456;7.248;2023-07-13T06:56:26;5.27;;;2.20;;
2934;SDS011;2462;51.456;7.248;2023-07-13T06:58:52;6.60;;;2.30;;
2934;SDS011;2462;51.456;7.248;2023-07-13T07:01:18;5.77;;;2.57;;
2934;SDS011;2462;51.456;7.248;2023-07-13T07:03:44;6.30;;;1.80;;
2934;SDS011;2462;51.456;7.248;2023-07-13T07:06:15;6.20;;;2.80;;
2934;SDS011;2462;51.456;7.248;2023-07-13T07:08:42;7.20;;;2.70;;
2934;SDS011;2462;51.456;7.248;2023-07-13T07:11:09;6.53;;;2.63;;
2934;SDS011;2462;51.456;7.248;2023-07-13T07:13:35;12.80;;;2.60;;
2934;SDS011;2462;51.456;7.248;2023-07-13T07:16:01;5.33;;;2.37;;
2934;SDS011;2462;51.456;7.248;2023-07-13T07:18:27;5.27;;;2.17;;
2934;SDS011;2462;51.456;7.248;2023-07-13T07:20:53;6.07;;;2.90;;
2934;SDS011;2462;51.456;7.248;2023-07-13T07:23:19;5.70;;;2.10;;
2934;SDS011;2462;51.456;7.248;2023-07-13T07:25:45;9.70;;;2.40;;
2934;SDS011;2462;51.456;7.248;2023-07-13T07:28:14;4.97;;;1.90;;
2934;SDS011;2462;51.456;7.248;2023-07-13T07:30:42;6.07;;;2.63;;
2934;SDS011;2462;51.456;7.248;2023-07-13T07:33:08;8.70;;;2.03;;
2934;SDS011;2462;51.456;7.248;2023-07-13T07:35:34;5.67;;;2.70;;
2934;SDS011;2462;51.456;7.248;2023-07-13T07:38:00;6.03;;;2.53;;
2934;SDS011;2462;51.456;7.248;2023-07-13T07:40:26;6.27;;;2.77;;
2934;SDS011;2462;51.456;7.248;2023-07-13T07:42:52;4.40;;;2.03;;
2934;SDS011;2462;51.456;7.248;2023-07-13T07:45:19;8.47;;;2.77;;
2934;SDS011;2462;51.456;7.248;2023-07-13T07:47:45;7.30;;;2.20;;
2934;SDS011;2462;51.456;7.248;2023-07-13T07:50:11;5.10;;;2.33;;
2934;SDS011;2462;51.456;7.248;2023-07-13T07:52:37;8.07;;;2.47;;
2934;SDS011;2462;51.456;7.248;2023-07-13T07:55:04;5.90;;;2.17;;
2934;SDS011;2462;51.456;7.248;2023-07-13T07:57:30;5.20;;;2.60;;
2934;SDS011;2462;51.456;7.248;2023-07-13T07:59:56;5.03;;;2.30;;
2934;SDS011;2462;51.456;7.248;2023-07-13T08:02:22;4.10;;;1.97;;
2934;SDS011;2462;51.456;7.248;2023-07-13T08:04:48;3.20;;;1.93;;
2934;SDS011;2462;51.456;7.248;2023-07-13T08:07:14;3.50;;;1.90;;
2934;SDS011;2462;51.456;7.248;2023-07-13T08:09:40;5.00;;;2.73;;
2934;SDS011;2462;51.456;7.248;2023-07-13T08:12:06;5.83;;;3.33;;
2934;SDS011;2462;51.456;7.248;2023-07-13T08:14:32;5.27;;;2.37;;
2934;SDS011;2462;51.456;7.248;2023-07-13T08:16:58;5.10;;;2.83;;
2934;SDS011;2462;51.456;7.248;2023-07-13T08:19:24;5.87;;;2.10;;
2934;SDS011;2462;51.456;7.248;2023-07-13T08:21:50;4.70;;;2.37;;
2934;SDS011;2462;51.456;7.248;2023-07-13T08:24:16;6.00;;;2.00;;
2934;SDS011;2462;51.456;7.248;2023-07-13T08:26:43;6.10;;;2.27;;
2934;SDS011;2462;51.456;7.248;2023-07-13T08:29:10;5.23;;;2.53;;
2934;SDS011;2462;51.456;7.248;2023-07-13T08:31:36;4.20;;;2.50;;
2934;SDS011;2462;51.456;7.248;2023-07-13T08:34:02;8.50;;;2.73;;
2934;SDS011;2462;51.456;7.248;2023-07-13T08:36:28;6.40;;;2.53;;
2934;SDS011;2462;51.456;7.248;2023-07-13T08:38:54;5.43;;;2.20;;
2934;SDS011;2462;51.456;7.248;2023-07-13T08:41:20;7.07;;;2.70;;
2934;SDS011;2462;51.456;7.248;2023-07-13T08:43:47;4.60;;;2.20;;
2934;SDS011;2462;51.456;7.248;2023-07-13T08:51:57;6.73;;;3.27;;
2934;SDS011;2462;51.456;7.248;2023-07-13T08:56:58;4.73;;;2.33;;
2934;SDS011;2462;51.456;7.248;2023-07-13T08:59:28;6.20;;;2.67;;
2934;SDS011;2462;51.456;7.248;2023-07-13T09:02:05;7.27;;;2.40;;
2934;SDS011;2462;51.456;7.248;2023-07-13T09:04:39;6.60;;;2.63;;
2934;SDS011;2462;51.456;7.248;2023-07-13T09:07:12;6.83;;;2.47;;
2934;SDS011;2462;51.456;7.248;2023-07-13T09:12:24;6.03;;;2.27;;
2934;SDS011;2462;51.456;7.248;2023-07-13T09:14:53;3.00;;;2.27;;
2934;SDS011;2462;51.456;7.248;2023-07-13T09:17:32;7.47;;;2.83;;
2934;SDS011;2462;51.456;7.248;2023-07-13T09:20:00;3.17;;;2.20;;
2934;SDS011;2462;51.456;7.248;2023-07-13T09:22:28;4.50;;;2.57;;
2934;SDS011;2462;51.456;7.248;2023-07-13T09:25:00;3.57;;;2.23;;
2934;SDS011;2462;51.456;7.248;2023-07-13T09:27:35;7.20;;;3.10;;
2934;SDS011;2462;51.456;7.248;2023-07-13T09:32:36;5.20;;;2.40;;
2934;SDS011;2462;51.456;7.248;2023-07-13T09:35:07;5.60;;;2.53;;
2934;SDS011;2462;51.456;7.248;2023-07-13T09:37:36;6.13;;;2.87;;
2934;SDS011;2462;51.456;7.248;2023-07-13T09:40:03;10.63;;;2.00;;
2934;SDS011;2462;51.456;7.248;2023-07-13T09:42:30;5.10;;;2.60;;
2934;SDS011;2462;51.456;7.248;2023-07-13T09:44:58;3.37;;;1.90;;
2934;SDS011;2462;51.456;7.248;2023-07-13T09:47:26;4.63;;;2.20;;
2934;SDS011;2462;51.456;7.248;2023-07-13T09:50:00;3.50;;;2.10;;
2934;SDS011;2462;51.456;7.248;2023-07-13T09:52:27;3.77;;;2.20;;
2934;SDS011;2462;51.456;7.248;2023-07-13T09:54:54;4.43;;;2.00;;
2934;SDS011;2462;51.456;7.248;2023-07-13T09:57:24;3.03;;;1.90;;
2934;SDS011;2462;51.456;7.248;2023-07-13T09:59:51;6.40;;;2.40;;
2934;SDS011;2462;51.456;7.248;2023-07-13T10:02:30;4.87;;;2.47;;
2934;SDS011;2462;51.456;7.248;2023-07-13T10:07:26;4.70;;;2.23;;
2934;SDS011;2462;51.456;7.248;2023-07-13T10:10:01;3.30;;;2.33;;
2934;SDS011;2462;51.456;7.248;2023-07-13T10:12:27;3.63;;;2.07;;
2934;SDS011;2462;51.456;7.248;2023-07-13T10:14:54;6.63;;;2.10;;
2934;SDS011;2462;51.456;7.248;2023-07-13T10:17:25;4.30;;;1.87;;
2934;SDS011;2462;51.456;7.248;2023-07-13T10:19:52;4.50;;;2.20;;
2934;SDS011;2462;51.456;7.248;2023-07-13T10:22:29;7.37;;;2.23;;
2934;SDS011;2462;51.456;7.248;2023-07-13T10:25:13;6.20;;;2.83;;
2934;SDS011;2462;51.456;7.248;2023-07-13T10:27:47;4.40;;;2.50;;
2934;SDS011;2462;51.456;7.248;2023-07-13T10:30:21;7.38;;;2.63;;
2934;SDS011;2462;51.456;7.248;2023-07-13T10:32:50;3.77;;;1.90;;
2934;SDS011;2462;51.456;7.248;2023-07-13T10:35:18;7.47;;;2.35;;
2934;SDS011;2462;51.456;7.248;2023-07-13T10:37:53;6.43;;;2.30;;
2934;SDS011;2462;51.456;7.248;2023-07-13T10:40:29;4.33;;;2.00;;
2934;SDS011;2462;51.456;7.248;2023-07-13T10:42:59;6.60;;;2.57;;
2934;SDS011;2462;51.456;7.248;2023-07-13T10:45:29;5.40;;;2.40;;
2934;SDS011;2462;51.456;7.248;2023-07-13T10:47:58;4.40;;;2.43;;
2934;SDS011;2462;51.456;7.248;2023-07-13T10:50:25;5.43;;;2.60;;
2934;SDS011;2462;51.456;7.248;2023-07-13T10:52:55;5.63;;;2.80;;
2934;SDS011;2462;51.456;7.248;2023-07-13T11:00:48;4.67;;;2.17;;
2934;SDS011;2462;51.456;7.248;2023-07-13T11:03:37;6.00;;;2.30;;
2934;SDS011;2462;51.456;7.248;2023-07-13T11:08:53;5.80;;;2.57;;
2934;SDS011;2462;51.456;7.248;2023-07-13T11:18:47;6.75;;;2.30;;
2934;SDS011;2462;51.456;7.248;2023-07-13T11:23:53;3.90;;;2.10;;
2934;SDS011;2462;51.456;7.248;2023-07-13T11:31:40;8.13;;;2.37;;
2934;SDS011;2462;51.456;7.248;2023-07-13T11:34:11;5.57;;;2.20;;
2934;SDS011;2462;51.456;7.248;2023-07-13T11:36:40;3.20;;;1.93;;
2934;SDS011;2462;51.456;7.248;2023-07-13T11:39:13;5.50;;;2.13;;
2934;SDS011;2462;51.456;7.248;2023-07-13T11:41:44;8.13;;;1.90;;
2934;SDS011;2462;51.456;7.248;2023-07-13T11:44:19;6.17;;;2.57;;
2934;SDS011;2462;51.456;7.248;2023-07-13T11:46:49;3.63;;;1.73;;
2934;SDS011;2462;51.456;7.248;2023-07-13T11:49:21;6.95;;;2.03;;
2934;SDS011;2462;51.456;7.248;2023-07-13T11:51:49;4.43;;;1.98;;
2934;SDS011;2462;51.456;7.248;2023-07-13T11:56:55;3.13;;;2.03;;
2934;SDS011;2462;51.456;7.248;2023-07-13T11:59:26;6.32;;;2.00;;
2934;SDS011;2462;51.456;7.248;2023-07-13T12:01:54;4.70;;;2.27;;
2934;SDS011;2462;51.456;7.248;2023-07-13T12:04:30;3.57;;;1.53;;
2934;SDS011;2462;51.456;7.248;2023-07-13T12:07:05;3.10;;;2.00;;
2934;SDS011;2462;51.456;7.248;2023-07-13T12:09:34;6.75;;;2.10;;
2934;SDS011;2462;51.456;7.248;2023-07-13T12:12:01;5.93;;;3.67;;
2934;SDS011;2462;51.456;7.248;2023-07-13T12:14:27;8.18;;;2.45;;
2934;SDS011;2462;51.456;7.248;2023-07-13T12:16:53;4.80;;;2.03;;
2934;SDS011;2462;51.456;7.248;2023-07-13T12:19:25;2.00;;;1.10;;
2934;SDS011;2462;51.456;7.248;2023-07-13T12:21:54;5.50;;;1.80;;
2934;SDS011;2462;51.456;7.248;2023-07-13T12:24:22;5.30;;;2.00;;
2934;SDS011;2462;51.456;7.248;2023-07-13T12:26:59;4.27;;;1.80;;
2934;SDS011;2462;51.456;7.248;2023-07-13T12:29:29;8.73;;;2.17;;
2934;SDS011;2462;51.456;7.248;2023-07-13T12:31:54;4.30;;;2.03;;
2934;SDS011;2462;51.456;7.248;2023-07-13T12:34:22;6.07;;;1.83;;
2934;SDS011;2462;51.456;7.248;2023-07-13T12:36:51;4.23;;;1.93;;
2934;SDS011;2462;51.456;7.248;2023-07-13T12:41:45;3.27;;;1.77;;
2934;SDS011;2462;51.456;7.248;2023-07-13T12:44:12;4.70;;;2.20;;
2934;SDS011;2462;51.456;7.248;2023-07-13T12:46:51;3.80;;;1.90;;
2934;SDS011;2462;51.456;7.248;2023-07-13T12:49:18;3.00;;;1.60;;
2934;SDS011;2462;51.456;7.248;2023-07-13T12:51:50;3.70;;;1.93;;
2934;SDS011;2462;51.456;7.248;2023-07-13T12:54:17;4.33;;;1.73;;
2934;SDS011;2462;51.456;7.248;2023-07-13T12:56:44;4.50;;;3.03;;
2934;SDS011;2462;51.456;7.248;2023-07-13T12:59:18;2.83;;;2.40;;
2934;SDS011;2462;51.456;7.248;2023-07-13T13:01:45;3.50;;;1.70;;
2934;SDS011;2462;51.456;7.248;2023-07-13T13:04:12;3.43;;;1.70;;
2934;SDS011;2462;51.456;7.248;2023-07-13T13:06:38;2.37;;;1.57;;
2934;SDS011;2462;51.456;7.248;2023-07-13T13:09:06;4.70;;;1.67;;
2934;SDS011;2462;51.456;7.248;2023-07-13T13:11:37;6.00;;;2.00;;
2934;SDS011;2462;51.456;7.248;2023-07-13T13:14:02;9.60;;;1.97;;
2934;SDS011;2462;51.456;7.248;2023-07-13T13:16:29;5.95;;;2.00;;
2934;SDS011;2462;51.456;7.248;2023-07-13T13:18:59;7.00;;;1.70;;
2934;SDS011;2462;51.456;7.248;2023-07-13T13:21:46;3.53;;;1.77;;
2934;SDS011;2462;51.456;7.248;2023-07-13T13:24:13;6.40;;;1.90;;
2934;SDS011;2462;51.456;7.248;2023-07-13T13:26:41;2.93;;;2.13;;
2934;SDS011;2462;51.456;7.248;2023-07-13T13:29:10;2.13;;;1.40;;
2934;SDS011;2462;51.456;7.248;2023-07-13T13:31:49;2.70;;;1.40;;
2934;SDS011;2462;51.456;7.248;2023-07-13T13:34:15;3.80;;;1.70;;
2934;SDS011;2462;51.456;7.248;2023-07-13T13:36:43;7.40;;;2.20;;
2934;SDS011;2462;51.456;7.248;2023-07-13T13:41:46;3.20;;;1.90;;
2934;SDS011;2462;51.456;7.248;2023-07-13T13:44:13;6.20;;;2.50;;
2934;SDS011;2462;51.456;7.248;2023-07-13T13:46:40;5.97;;;2.20;;
2934;SDS011;2462;51.456;7.248;2023-07-13T13:49:11;7.63;;;2.30;;
2934;SDS011;2462;51.456;7.248;2023-07-13T13:51:42;2.87;;;2.00;;
2934;SDS011;2462;51.456;7.248;2023-07-13T13:54:12;3.00;;;2.00;;
2934;SDS011;2462;51.456;7.248;2023-07-13T13:56:41;4.73;;;2.30;;
2934;SDS011;2462;51.456;7.248;2023-07-13T13:59:07;7.10;;;1.90;;
2934;SDS011;2462;51.456;7.248;2023-07-13T14:01:33;3.83;;;2.00;;
2934;SDS011;2462;51.456;7.248;2023-07-13T14:04:00;3.77;;;2.57;;
2934;SDS011;2462;51.456;7.248;2023-07-13T14:06:25;5.70;;;2.50;;
2934;SDS011;2462;51.456;7.248;2023-07-13T14:08:52;4.17;;;2.60;;
2934;SDS011;2462;51.456;7.248;2023-07-13T14:11:20;2.93;;;2.17;;
2934;SDS011;2462;51.456;7.248;2023-07-13T14:13:52;7.87;;;2.60;;
2934;SDS011;2462;51.456;7.248;2023-07-13T14:16:20;4.87;;;2.20;;
2934;SDS011;2462;51.456;7.248;2023-07-13T14:18:47;2.10;;;1.83;;
2934;SDS011;2462;51.456;7.248;2023-07-13T14:21:18;3.53;;;1.90;;
2934;SDS011;2462;51.456;7.248;2023-07-13T14:23:45;3.50;;;1.87;;
2934;SDS011;2462;51.456;7.248;2023-07-13T14:26:12;4.17;;;2.30;;
2934;SDS011;2462;51.456;7.248;2023-07-13T14:28:50;5.47;;;2.33;;
2934;SDS011;2462;51.456;7.248;2023-07-13T14:31:17;3.50;;;2.10;;
2934;SDS011;2462;51.456;7.248;2023-07-13T14:33:44;4.13;;;2.30;;
2934;SDS011;2462;51.456;7.248;2023-07-13T14:39:17;3.97;;;2.30;;
2934;SDS011;2462;51.456;7.248;2023-07-13T14:41:45;5.83;;;2.90;;
2934;SDS011;2462;51.456;7.248;2023-07-13T14:44:15;4.33;;;2.30;;
2934;SDS011;2462;51.456;7.248;2023-07-13T14:46:42;4.07;;;3.67;;
2934;SDS011;2462;51.456;7.248;2023-07-13T14:49:23;7.30;;;2.50;;
2934;SDS011;2462;51.456;7.248;2023-07-13T14:51:49;10.47;;;4.10;;
2934;SDS011;2462;51.456;7.248;2023-07-13T14:54:16;3.33;;;2.43;;
2934;SDS011;2462;51.456;7.248;2023-07-13T14:56:41;3.47;;;2.40;;
2934;SDS011;2462;51.456;7.248;2023-07-13T14:59:07;2.87;;;2.07;;
2934;SDS011;2462;51.456;7.248;2023-07-13T15:01:32;7.00;;;2.70;;
2934;SDS011;2462;51.456;7.248;2023-07-13T15:04:02;3.87;;;2.90;;
2934;SDS011;2462;51.456;7.248;2023-07-13T15:06:28;7.10;;;3.20;;
2934;SDS011;2462;51.456;7.248;2023-07-13T15:08:56;3.43;;;2.43;;
2934;SDS011;2462;51.456;7.248;2023-07-13T15:11:22;7.60;;;4.00;;
2934;SDS011;2462;51.456;7.248;2023-07-13T15:13:48;9.93;;;3.67;;
2934;SDS011;2462;51.456;7.248;2023-07-13T15:16:15;3.87;;;3.10;;
2934;SDS011;2462;51.456;7.248;2023-07-13T15:18:43;3.53;;;2.70;;
2934;SDS011;2462;51.456;7.248;2023-07-13T15:21:10;10.10;;;4.20;;
2934;SDS011;2462;51.456;7.248;2023-07-13T15:23:41;5.60;;;3.60;;
2934;SDS011;2462;51.456;7.248;2023-07-13T15:26:16;6.43;;;3.80;;
2934;SDS011;2462;51.456;7.248;2023-07-13T15:28:43;5.73;;;3.30;;
2934;SDS011;2462;51.456;7.248;2023-07-13T15:31:18;6.73;;;3.73;;
2934;SDS011;2462;51.456;7.248;2023-07-13T15:33:49;7.10;;;4.07;;
2934;SDS011;2462;51.456;7.248;2023-07-13T15:36:17;4.63;;;3.63;;
2934;SDS011;2462;51.456;7.248;2023-07-13T15:38:44;3.93;;;3.40;;
2934;SDS011;2462;51.456;7.248;2023-07-13T15:41:14;6.07;;;3.77;;
2934;SDS011;2462;51.456;7.248;2023-07-13T15:43:47;7.50;;;3.03;;
2934;SDS011;2462;51.456;7.248;2023-07-13T15:46:20;7.87;;;2.40;;
2934;SDS011;2462;51.456;7.248;2023-07-13T15:48:51;2.70;;;1.97;;
2934;SDS011;2462;51.456;7.248;2023-07-13T15:51:26;3.40;;;2.40;;
2934;SDS011;2462;51.456;7.248;2023-07-13T15:53:53;2.83;;;2.40;;
2934;SDS011;2462;51.456;7.248;2023-07-13T15:56:26;3.23;;;2.30;;
2934;SDS011;2462;51.456;7.248;2023-07-13T15:58:53;3.13;;;2.50;;
2934;SDS011;2462;51.456;7.248;2023-07-13T16:01:21;3.30;;;2.23;;
2934;SDS011;2462;51.456;7.248;2023-07-13T16:03:47;6.53;;;2.93;;
2934;SDS011;2462;51.456;7.248;2023-07-13T16:06:15;5.07;;;3.23;;
2934;SDS011;2462;51.456;7.248;2023-07-13T16:08:48;6.27;;;3.10;;